sensor_id;sensor_type;location;lat;lon;timestamp;P1;durP1;ratioP1;P2;durP2;ratioP2
37905;SDS011;23739;51.448;6.674;2023-12-20T00:01:37;19.10;;;10.98;;
37905;SDS011;23739;51.448;6.674;2023-12-20T00:04:03;19.40;;;10.10;;
37905;SDS011;23739;51.448;6.674;2023-12-20T00:06:30;20.83;;;11.38;;
37905;SDS011;23739;51.448;6.674;2023-12-20T00:08:56;19.90;;;10.65;;
37905;SDS011;23739;51.448;6.674;2023-12-20T00:11:25;20.85;;;11.48;;
37905;SDS011;23739;51.448;6.674;2023-12-20T00:13:51;17.50;;;10.63;;
37905;SDS011;23739;51.448;6.674;2023-12-20T00:16:18;17.67;;;9.20;;
37905;SDS011;23739;51.448;6.674;2023-12-20T00:18:44;18.90;;;10.02;;
37905;SDS011;23739;51.448;6.674;2023-12-20T00:21:10;17.95;;;9.75;;
37905;SDS011;23739;51.448;6.674;2023-12-20T00:23:36;18.33;;;9.77;;
37905;SDS011;23739;51.448;6.674;2023-12-20T00:26:02;16.88;;;8.60;;
37905;SDS011;23739;51.448;6.674;2023-12-20T00:28:28;17.27;;;9.98;;
37905;SDS011;23739;51.448;6.674;2023-12-20T00:30:54;15.90;;;7.53;;
37905;SDS011;23739;51.448;6.674;2023-12-20T00:33:21;16.75;;;8.73;;
37905;SDS011;23739;51.448;6.674;2023-12-20T00:35:47;12.27;;;7.43;;
37905;SDS011;23739;51.448;6.674;2023-12-20T00:38:13;17.38;;;8.30;;
37905;SDS011;23739;51.448;6.674;2023-12-20T00:40:39;18.77;;;7.78;;
37905;SDS011;23739;51.448;6.674;2023-12-20T00:43:05;14.38;;;8.23;;
37905;SDS011;23739;51.448;6.674;2023-12-20T00:45:31;13.68;;;8.07;;
37905;SDS011;23739;51.448;6.674;2023-12-20T00:47:57;16.55;;;8.65;;
37905;SDS011;23739;51.448;6.674;2023-12-20T00:50:24;18.20;;;8.32;;
37905;SDS011;23739;51.448;6.674;2023-12-20T00:52:50;14.60;;;8.77;;
37905;SDS011;23739;51.448;6.674;2023-12-20T00:55:16;16.52;;;8.18;;
37905;SDS011;23739;51.448;6.674;2023-12-20T00:57:42;17.60;;;9.20;;
37905;SDS011;23739;51.448;6.674;2023-12-20T01:00:08;16.20;;;8.18;;
37905;SDS011;23739;51.448;6.674;2023-12-20T01:02:35;16.65;;;9.95;;
37905;SDS011;23739;51.448;6.674;2023-12-20T01:05:01;18.52;;;9.85;;
37905;SDS011;23739;51.448;6.674;2023-12-20T01:07:27;17.75;;;9.77;;
37905;SDS011;23739;51.448;6.674;2023-12-20T01:09:54;19.05;;;9.82;;
37905;SDS011;23739;51.448;6.674;2023-12-20T01:12:20;22.38;;;11.73;;
37905;SDS011;23739;51.448;6.674;2023-12-20T01:14:46;24.45;;;10.80;;
37905;SDS011;23739;51.448;6.674;2023-12-20T01:17:12;14.40;;;9.70;;
37905;SDS011;23739;51.448;6.674;2023-12-20T01:19:38;18.17;;;8.35;;
37905;SDS011;23739;51.448;6.674;2023-12-20T01:22:04;13.80;;;9.02;;
37905;SDS011;23739;51.448;6.674;2023-12-20T01:24:30;15.68;;;8.05;;
37905;SDS011;23739;51.448;6.674;2023-12-20T01:26:56;15.88;;;8.40;;
37905;SDS011;23739;51.448;6.674;2023-12-20T01:29:22;21.05;;;8.73;;
37905;SDS011;23739;51.448;6.674;2023-12-20T01:31:48;18.33;;;8.48;;
37905;SDS011;23739;51.448;6.674;2023-12-20T01:34:15;14.50;;;8.65;;
37905;SDS011;23739;51.448;6.674;2023-12-20T01:36:41;14.32;;;8.52;;
37905;SDS011;23739;51.448;6.674;2023-12-20T01:39:07;12.75;;;7.28;;
37905;SDS011;23739;51.448;6.674;2023-12-20T01:41:33;16.95;;;8.00;;
37905;SDS011;23739;51.448;6.674;2023-12-20T01:43:59;21.60;;;7.60;;
37905;SDS011;23739;51.448;6.674;2023-12-20T01:46:25;30.00;;;8.70;;
37905;SDS011;23739;51.448;6.674;2023-12-20T01:48:51;16.63;;;6.82;;
37905;SDS011;23739;51.448;6.674;2023-12-20T01:51:18;16.40;;;9.18;;
37905;SDS011;23739;51.448;6.674;2023-12-20T01:53:44;21.15;;;8.55;;
37905;SDS011;23739;51.448;6.674;2023-12-20T01:56:10;21.20;;;8.32;;
37905;SDS011;23739;51.448;6.674;2023-12-20T01:58:37;20.70;;;8.90;;
37905;SDS011;23739;51.448;6.674;2023-12-20T02:01:05;15.32;;;8.55;;
37905;SDS011;23739;51.448;6.674;2023-12-20T02:03:31;21.63;;;8.98;;
37905;SDS011;23739;51.448;6.674;2023-12-20T02:05:57;18.55;;;8.43;;
37905;SDS011;23739;51.448;6.674;2023-12-20T02:08:23;17.88;;;8.70;;
37905;SDS011;23739;51.448;6.674;2023-12-20T02:10:49;20.30;;;8.50;;
37905;SDS011;23739;51.448;6.674;2023-12-20T02:13:16;22.70;;;8.88;;
37905;SDS011;23739;51.448;6.674;2023-12-20T02:15:42;27.20;;;9.10;;
37905;SDS011;23739;51.448;6.674;2023-12-20T02:18:09;18.42;;;8.95;;
37905;SDS011;23739;51.448;6.674;2023-12-20T02:20:35;19.42;;;8.27;;
37905;SDS011;23739;51.448;6.674;2023-12-20T02:23:01;26.90;;;8.85;;
37905;SDS011;23739;51.448;6.674;2023-12-20T02:25:27;20.02;;;8.45;;
37905;SDS011;23739;51.448;6.674;2023-12-20T02:27:53;21.17;;;8.23;;
37905;SDS011;23739;51.448;6.674;2023-12-20T02:30:19;15.40;;;7.80;;
37905;SDS011;23739;51.448;6.674;2023-12-20T02:32:45;19.05;;;7.45;;
37905;SDS011;23739;51.448;6.674;2023-12-20T02:35:11;21.73;;;8.02;;
37905;SDS011;23739;51.448;6.674;2023-12-20T02:37:37;19.40;;;8.13;;
37905;SDS011;23739;51.448;6.674;2023-12-20T02:40:03;12.98;;;6.50;;
37905;SDS011;23739;51.448;6.674;2023-12-20T02:42:29;15.38;;;6.53;;
37905;SDS011;23739;51.448;6.674;2023-12-20T02:44:55;11.15;;;6.13;;
37905;SDS011;23739;51.448;6.674;2023-12-20T02:47:22;15.00;;;5.72;;
37905;SDS011;23739;51.448;6.674;2023-12-20T02:49:48;13.75;;;5.80;;
37905;SDS011;23739;51.448;6.674;2023-12-20T02:52:14;14.13;;;5.78;;
37905;SDS011;23739;51.448;6.674;2023-12-20T02:54:40;13.57;;;5.30;;
37905;SDS011;23739;51.448;6.674;2023-12-20T02:57:06;23.25;;;5.93;;
37905;SDS011;23739;51.448;6.674;2023-12-20T02:59:32;12.15;;;4.93;;
37905;SDS011;23739;51.448;6.674;2023-12-20T03:01:58;23.27;;;5.13;;
37905;SDS011;23739;51.448;6.674;2023-12-20T03:04:24;19.63;;;4.50;;
37905;SDS011;23739;51.448;6.674;2023-12-20T03:06:50;16.33;;;5.18;;
37905;SDS011;23739;51.448;6.674;2023-12-20T03:09:16;10.45;;;4.38;;
37905;SDS011;23739;51.448;6.674;2023-12-20T03:11:42;14.85;;;4.85;;
37905;SDS011;23739;51.448;6.674;2023-12-20T03:14:08;13.73;;;3.92;;
37905;SDS011;23739;51.448;6.674;2023-12-20T03:16:35;14.20;;;4.93;;
37905;SDS011;23739;51.448;6.674;2023-12-20T03:19:01;20.10;;;4.70;;
37905;SDS011;23739;51.448;6.674;2023-12-20T03:21:27;12.35;;;4.90;;
37905;SDS011;23739;51.448;6.674;2023-12-20T03:23:53;17.35;;;3.90;;
37905;SDS011;23739;51.448;6.674;2023-12-20T03:26:19;17.23;;;4.45;;
37905;SDS011;23739;51.448;6.674;2023-12-20T03:28:45;19.33;;;4.18;;
37905;SDS011;23739;51.448;6.674;2023-12-20T03:31:11;9.43;;;4.20;;
37905;SDS011;23739;51.448;6.674;2023-12-20T03:33:37;17.60;;;5.00;;
37905;SDS011;23739;51.448;6.674;2023-12-20T03:36:03;16.67;;;3.78;;
37905;SDS011;23739;51.448;6.674;2023-12-20T03:38:29;22.60;;;5.30;;
37905;SDS011;23739;51.448;6.674;2023-12-20T03:40:55;15.45;;;4.13;;
37905;SDS011;23739;51.448;6.674;2023-12-20T03:43:21;21.23;;;3.60;;
37905;SDS011;23739;51.448;6.674;2023-12-20T03:45:47;5.63;;;2.42;;
37905;SDS011;23739;51.448;6.674;2023-12-20T03:48:13;10.15;;;3.05;;
37905;SDS011;23739;51.448;6.674;2023-12-20T03:50:39;20.33;;;3.17;;
37905;SDS011;23739;51.448;6.674;2023-12-20T03:53:05;17.13;;;3.80;;
37905;SDS011;23739;51.448;6.674;2023-12-20T03:55:31;13.57;;;3.78;;
37905;SDS011;23739;51.448;6.674;2023-12-20T03:57:57;16.17;;;4.25;;
37905;SDS011;23739;51.448;6.674;2023-12-20T04:00:23;17.50;;;3.22;;
37905;SDS011;23739;51.448;6.674;2023-12-20T04:02:50;11.43;;;3.17;;
37905;SDS011;23739;51.448;6.674;2023-12-20T04:05:16;13.68;;;4.25;;
37905;SDS011;23739;51.448;6.674;2023-12-20T04:07:42;13.68;;;4.50;;
37905;SDS011;23739;51.448;6.674;2023-12-20T04:10:08;11.32;;;3.40;;
37905;SDS011;23739;51.448;6.674;2023-12-20T04:12:35;11.25;;;5.13;;
37905;SDS011;23739;51.448;6.674;2023-12-20T04:15:01;18.25;;;3.08;;
37905;SDS011;23739;51.448;6.674;2023-12-20T04:17:33;24.75;;;6.88;;
37905;SDS011;23739;51.448;6.674;2023-12-20T04:19:59;18.70;;;5.95;;
37905;SDS011;23739;51.448;6.674;2023-12-20T04:22:26;9.77;;;2.80;;
37905;SDS011;23739;51.448;6.674;2023-12-20T04:24:52;23.05;;;4.28;;
37905;SDS011;23739;51.448;6.674;2023-12-20T04:27:17;17.35;;;3.25;;
37905;SDS011;23739;51.448;6.674;2023-12-20T04:29:43;14.73;;;4.45;;
37905;SDS011;23739;51.448;6.674;2023-12-20T04:32:09;9.52;;;3.55;;
37905;SDS011;23739;51.448;6.674;2023-12-20T04:34:36;17.00;;;4.47;;
37905;SDS011;23739;51.448;6.674;2023-12-20T04:37:02;19.80;;;5.15;;
37905;SDS011;23739;51.448;6.674;2023-12-20T04:39:28;16.48;;;4.80;;
37905;SDS011;23739;51.448;6.674;2023-12-20T04:41:54;22.10;;;4.47;;
37905;SDS011;23739;51.448;6.674;2023-12-20T04:44:20;15.38;;;5.68;;
37905;SDS011;23739;51.448;6.674;2023-12-20T04:46:46;14.45;;;3.92;;
37905;SDS011;23739;51.448;6.674;2023-12-20T04:49:12;15.63;;;5.47;;
37905;SDS011;23739;51.448;6.674;2023-12-20T04:51:38;17.48;;;3.95;;
37905;SDS011;23739;51.448;6.674;2023-12-20T04:54:04;19.23;;;4.50;;
37905;SDS011;23739;51.448;6.674;2023-12-20T04:56:30;23.60;;;6.97;;
37905;SDS011;23739;51.448;6.674;2023-12-20T04:58:57;14.70;;;4.65;;
37905;SDS011;23739;51.448;6.674;2023-12-20T05:01:23;19.70;;;5.88;;
37905;SDS011;23739;51.448;6.674;2023-12-20T05:03:49;16.35;;;6.15;;
37905;SDS011;23739;51.448;6.674;2023-12-20T05:06:15;11.90;;;5.22;;
37905;SDS011;23739;51.448;6.674;2023-12-20T05:08:41;23.13;;;7.15;;
37905;SDS011;23739;51.448;6.674;2023-12-20T05:11:07;23.00;;;6.78;;
37905;SDS011;23739;51.448;6.674;2023-12-20T05:13:33;23.30;;;6.53;;
37905;SDS011;23739;51.448;6.674;2023-12-20T05:15:59;26.92;;;6.57;;
37905;SDS011;23739;51.448;6.674;2023-12-20T05:18:25;15.70;;;6.03;;
37905;SDS011;23739;51.448;6.674;2023-12-20T05:20:51;18.55;;;6.35;;
37905;SDS011;23739;51.448;6.674;2023-12-20T05:23:17;20.35;;;7.15;;
37905;SDS011;23739;51.448;6.674;2023-12-20T05:25:43;18.30;;;7.45;;
37905;SDS011;23739;51.448;6.674;2023-12-20T05:28:09;24.92;;;7.47;;
37905;SDS011;23739;51.448;6.674;2023-12-20T05:30:35;21.52;;;7.20;;
37905;SDS011;23739;51.448;6.674;2023-12-20T05:33:01;20.50;;;6.18;;
37905;SDS011;23739;51.448;6.674;2023-12-20T05:35:27;17.13;;;5.72;;
37905;SDS011;23739;51.448;6.674;2023-12-20T05:37:53;17.98;;;6.50;;
37905;SDS011;23739;51.448;6.674;2023-12-20T05:40:19;16.70;;;7.10;;
37905;SDS011;23739;51.448;6.674;2023-12-20T05:42:45;19.05;;;5.68;;
37905;SDS011;23739;51.448;6.674;2023-12-20T05:45:12;19.40;;;6.85;;
37905;SDS011;23739;51.448;6.674;2023-12-20T05:47:38;23.77;;;6.28;;
37905;SDS011;23739;51.448;6.674;2023-12-20T05:50:04;18.25;;;5.40;;
37905;SDS011;23739;51.448;6.674;2023-12-20T05:52:31;28.25;;;7.40;;
37905;SDS011;23739;51.448;6.674;2023-12-20T05:54:57;17.30;;;5.95;;
37905;SDS011;23739;51.448;6.674;2023-12-20T05:57:26;24.05;;;7.03;;
37905;SDS011;23739;51.448;6.674;2023-12-20T05:59:52;19.20;;;6.22;;
37905;SDS011;23739;51.448;6.674;2023-12-20T06:02:18;17.90;;;6.95;;
37905;SDS011;23739;51.448;6.674;2023-12-20T06:04:44;15.50;;;5.43;;
37905;SDS011;23739;51.448;6.674;2023-12-20T06:07:13;21.58;;;6.28;;
37905;SDS011;23739;51.448;6.674;2023-12-20T06:09:39;19.40;;;6.25;;
37905;SDS011;23739;51.448;6.674;2023-12-20T06:12:06;19.05;;;6.82;;
37905;SDS011;23739;51.448;6.674;2023-12-20T06:14:33;22.77;;;8.32;;
37905;SDS011;23739;51.448;6.674;2023-12-20T06:16:59;13.82;;;6.28;;
37905;SDS011;23739;51.448;6.674;2023-12-20T06:19:26;15.55;;;5.93;;
37905;SDS011;23739;51.448;6.674;2023-12-20T06:21:52;21.63;;;6.22;;
37905;SDS011;23739;51.448;6.674;2023-12-20T06:24:18;19.30;;;6.72;;
37905;SDS011;23739;51.448;6.674;2023-12-20T06:26:45;17.63;;;5.88;;
37905;SDS011;23739;51.448;6.674;2023-12-20T06:29:11;14.88;;;6.70;;
37905;SDS011;23739;51.448;6.674;2023-12-20T06:31:37;18.35;;;5.60;;
37905;SDS011;23739;51.448;6.674;2023-12-20T06:34:03;18.52;;;5.88;;
37905;SDS011;23739;51.448;6.674;2023-12-20T06:36:29;16.00;;;5.75;;
37905;SDS011;23739;51.448;6.674;2023-12-20T06:38:55;17.90;;;5.65;;
37905;SDS011;23739;51.448;6.674;2023-12-20T06:41:22;20.55;;;6.57;;
37905;SDS011;23739;51.448;6.674;2023-12-20T06:43:49;16.70;;;6.18;;
37905;SDS011;23739;51.448;6.674;2023-12-20T06:46:15;19.88;;;6.63;;
37905;SDS011;23739;51.448;6.674;2023-12-20T06:48:41;23.17;;;5.97;;
37905;SDS011;23739;51.448;6.674;2023-12-20T06:51:10;23.73;;;7.20;;
37905;SDS011;23739;51.448;6.674;2023-12-20T06:53:36;17.10;;;5.25;;
37905;SDS011;23739;51.448;6.674;2023-12-20T06:56:03;15.00;;;5.57;;
37905;SDS011;23739;51.448;6.674;2023-12-20T06:58:29;20.88;;;5.32;;
37905;SDS011;23739;51.448;6.674;2023-12-20T07:00:55;19.52;;;5.47;;
37905;SDS011;23739;51.448;6.674;2023-12-20T07:03:20;17.77;;;5.18;;
37905;SDS011;23739;51.448;6.674;2023-12-20T07:05:47;15.40;;;5.85;;
37905;SDS011;23739;51.448;6.674;2023-12-20T07:08:13;22.90;;;6.07;;
37905;SDS011;23739;51.448;6.674;2023-12-20T07:10:40;17.88;;;5.70;;
37905;SDS011;23739;51.448;6.674;2023-12-20T07:13:06;25.67;;;6.47;;
37905;SDS011;23739;51.448;6.674;2023-12-20T07:15:33;22.88;;;5.63;;
37905;SDS011;23739;51.448;6.674;2023-12-20T07:17:59;18.98;;;7.25;;
37905;SDS011;23739;51.448;6.674;2023-12-20T07:20:25;16.40;;;5.93;;
37905;SDS011;23739;51.448;6.674;2023-12-20T07:22:51;19.23;;;6.05;;
37905;SDS011;23739;51.448;6.674;2023-12-20T07:25:18;12.13;;;5.47;;
37905;SDS011;23739;51.448;6.674;2023-12-20T07:27:45;24.05;;;6.40;;
37905;SDS011;23739;51.448;6.674;2023-12-20T07:30:11;13.68;;;5.45;;
37905;SDS011;23739;51.448;6.674;2023-12-20T07:32:37;19.65;;;4.93;;
37905;SDS011;23739;51.448;6.674;2023-12-20T07:35:03;19.77;;;7.35;;
37905;SDS011;23739;51.448;6.674;2023-12-20T07:37:30;15.13;;;4.50;;
37905;SDS011;23739;51.448;6.674;2023-12-20T07:39:56;16.75;;;4.85;;
37905;SDS011;23739;51.448;6.674;2023-12-20T07:42:22;20.67;;;6.45;;
37905;SDS011;23739;51.448;6.674;2023-12-20T07:44:48;18.58;;;5.18;;
37905;SDS011;23739;51.448;6.674;2023-12-20T07:47:14;26.58;;;5.63;;
37905;SDS011;23739;51.448;6.674;2023-12-20T07:49:44;21.30;;;5.55;;
37905;SDS011;23739;51.448;6.674;2023-12-20T07:52:10;25.92;;;5.97;;
37905;SDS011;23739;51.448;6.674;2023-12-20T07:54:36;18.40;;;7.07;;
37905;SDS011;23739;51.448;6.674;2023-12-20T07:57:02;18.33;;;5.90;;
37905;SDS011;23739;51.448;6.674;2023-12-20T07:59:28;16.35;;;5.88;;
37905;SDS011;23739;51.448;6.674;2023-12-20T08:01:54;13.98;;;5.03;;
37905;SDS011;23739;51.448;6.674;2023-12-20T08:04:20;18.65;;;7.35;;
37905;SDS011;23739;51.448;6.674;2023-12-20T08:06:47;26.55;;;7.00;;
37905;SDS011;23739;51.448;6.674;2023-12-20T08:09:13;24.13;;;6.75;;
37905;SDS011;23739;51.448;6.674;2023-12-20T08:11:39;17.52;;;5.78;;
37905;SDS011;23739;51.448;6.674;2023-12-20T08:14:05;13.00;;;4.88;;
37905;SDS011;23739;51.448;6.674;2023-12-20T08:16:31;19.27;;;6.30;;
37905;SDS011;23739;51.448;6.674;2023-12-20T08:18:57;16.27;;;5.10;;
37905;SDS011;23739;51.448;6.674;2023-12-20T08:21:23;25.17;;;7.30;;
37905;SDS011;23739;51.448;6.674;2023-12-20T08:23:49;21.00;;;7.78;;
37905;SDS011;23739;51.448;6.674;2023-12-20T08:26:18;20.80;;;5.25;;
37905;SDS011;23739;51.448;6.674;2023-12-20T08:28:45;22.58;;;5.70;;
37905;SDS011;23739;51.448;6.674;2023-12-20T08:31:14;18.10;;;5.80;;
37905;SDS011;23739;51.448;6.674;2023-12-20T08:33:44;12.88;;;4.80;;
37905;SDS011;23739;51.448;6.674;2023-12-20T08:36:10;21.35;;;5.45;;
37905;SDS011;23739;51.448;6.674;2023-12-20T08:38:36;13.88;;;3.88;;
37905;SDS011;23739;51.448;6.674;2023-12-20T08:41:02;12.68;;;4.25;;
37905;SDS011;23739;51.448;6.674;2023-12-20T08:43:30;20.05;;;4.72;;
37905;SDS011;23739;51.448;6.674;2023-12-20T08:45:56;18.60;;;3.70;;
37905;SDS011;23739;51.448;6.674;2023-12-20T08:48:22;12.55;;;4.25;;
37905;SDS011;23739;51.448;6.674;2023-12-20T08:50:48;12.95;;;3.90;;
37905;SDS011;23739;51.448;6.674;2023-12-20T08:53:16;12.60;;;3.10;;
37905;SDS011;23739;51.448;6.674;2023-12-20T08:55:43;13.30;;;4.72;;
37905;SDS011;23739;51.448;6.674;2023-12-20T08:58:09;22.02;;;4.43;;
37905;SDS011;23739;51.448;6.674;2023-12-20T09:00:35;13.10;;;4.47;;
37905;SDS011;23739;51.448;6.674;2023-12-20T09:03:02;18.00;;;4.20;;
37905;SDS011;23739;51.448;6.674;2023-12-20T09:05:28;19.27;;;4.00;;
37905;SDS011;23739;51.448;6.674;2023-12-20T09:07:55;15.05;;;3.40;;
37905;SDS011;23739;51.448;6.674;2023-12-20T09:10:21;14.57;;;3.85;;
37905;SDS011;23739;51.448;6.674;2023-12-20T09:12:48;16.55;;;4.60;;
37905;SDS011;23739;51.448;6.674;2023-12-20T09:15:14;12.07;;;4.30;;
37905;SDS011;23739;51.448;6.674;2023-12-20T09:17:40;20.65;;;5.25;;
37905;SDS011;23739;51.448;6.674;2023-12-20T09:20:06;18.85;;;5.43;;
37905;SDS011;23739;51.448;6.674;2023-12-20T09:22:34;22.05;;;4.90;;
37905;SDS011;23739;51.448;6.674;2023-12-20T09:25:00;14.63;;;5.07;;
37905;SDS011;23739;51.448;6.674;2023-12-20T09:27:29;21.58;;;5.95;;
37905;SDS011;23739;51.448;6.674;2023-12-20T09:29:55;20.20;;;4.88;;
37905;SDS011;23739;51.448;6.674;2023-12-20T09:32:21;14.20;;;4.28;;
37905;SDS011;23739;51.448;6.674;2023-12-20T09:34:47;21.08;;;5.25;;
37905;SDS011;23739;51.448;6.674;2023-12-20T09:37:14;16.90;;;5.07;;
37905;SDS011;23739;51.448;6.674;2023-12-20T09:39:40;13.45;;;4.13;;
37905;SDS011;23739;51.448;6.674;2023-12-20T09:42:06;9.68;;;4.13;;
37905;SDS011;23739;51.448;6.674;2023-12-20T09:44:32;21.35;;;5.28;;
37905;SDS011;23739;51.448;6.674;2023-12-20T09:47:02;10.77;;;3.40;;
37905;SDS011;23739;51.448;6.674;2023-12-20T09:49:29;26.20;;;5.72;;
37905;SDS011;23739;51.448;6.674;2023-12-20T09:51:56;18.95;;;4.20;;
37905;SDS011;23739;51.448;6.674;2023-12-20T09:54:22;14.43;;;4.40;;
37905;SDS011;23739;51.448;6.674;2023-12-20T09:56:49;19.55;;;5.30;;
37905;SDS011;23739;51.448;6.674;2023-12-20T09:59:15;23.05;;;4.65;;
37905;SDS011;23739;51.448;6.674;2023-12-20T10:01:42;14.85;;;4.50;;
37905;SDS011;23739;51.448;6.674;2023-12-20T10:04:08;13.48;;;3.90;;
37905;SDS011;23739;51.448;6.674;2023-12-20T10:06:40;11.15;;;4.60;;
37905;SDS011;23739;51.448;6.674;2023-12-20T10:09:07;11.38;;;4.75;;
37905;SDS011;23739;51.448;6.674;2023-12-20T10:11:34;23.90;;;4.63;;
37905;SDS011;23739;51.448;6.674;2023-12-20T10:14:17;17.70;;;4.07;;
37905;SDS011;23739;51.448;6.674;2023-12-20T10:16:43;12.98;;;3.17;;
37905;SDS011;23739;51.448;6.674;2023-12-20T10:19:09;13.43;;;3.97;;
37905;SDS011;23739;51.448;6.674;2023-12-20T10:21:35;19.48;;;5.70;;
37905;SDS011;23739;51.448;6.674;2023-12-20T10:24:02;19.23;;;4.50;;
37905;SDS011;23739;51.448;6.674;2023-12-20T10:26:28;14.90;;;4.43;;
37905;SDS011;23739;51.448;6.674;2023-12-20T10:28:55;14.45;;;4.55;;
37905;SDS011;23739;51.448;6.674;2023-12-20T10:33:55;20.05;;;5.40;;
37905;SDS011;23739;51.448;6.674;2023-12-20T10:36:22;16.23;;;3.85;;
37905;SDS011;23739;51.448;6.674;2023-12-20T10:38:49;16.88;;;5.13;;
37905;SDS011;23739;51.448;6.674;2023-12-20T10:41:18;18.95;;;4.80;;
37905;SDS011;23739;51.448;6.674;2023-12-20T10:43:48;18.42;;;5.28;;
37905;SDS011;23739;51.448;6.674;2023-12-20T10:46:14;12.45;;;4.50;;
37905;SDS011;23739;51.448;6.674;2023-12-20T10:48:40;17.48;;;5.82;;
37905;SDS011;23739;51.448;6.674;2023-12-20T10:51:07;12.73;;;4.28;;
37905;SDS011;23739;51.448;6.674;2023-12-20T10:53:33;22.00;;;4.95;;
37905;SDS011;23739;51.448;6.674;2023-12-20T10:56:01;11.68;;;4.05;;
37905;SDS011;23739;51.448;6.674;2023-12-20T10:58:28;17.02;;;4.78;;
37905;SDS011;23739;51.448;6.674;2023-12-20T11:00:58;15.77;;;4.75;;
37905;SDS011;23739;51.448;6.674;2023-12-20T11:03:26;11.43;;;4.60;;
37905;SDS011;23739;51.448;6.674;2023-12-20T11:06:02;15.23;;;4.35;;
37905;SDS011;23739;51.448;6.674;2023-12-20T11:11:12;15.15;;;4.72;;
37905;SDS011;23739;51.448;6.674;2023-12-20T11:14:22;10.75;;;4.93;;
37905;SDS011;23739;51.448;6.674;2023-12-20T11:16:31;18.02;;;5.18;;
37905;SDS011;23739;51.448;6.674;2023-12-20T11:18:57;13.43;;;4.22;;
37905;SDS011;23739;51.448;6.674;2023-12-20T11:21:23;13.80;;;3.83;;
37905;SDS011;23739;51.448;6.674;2023-12-20T11:23:50;18.60;;;4.57;;
37905;SDS011;23739;51.448;6.674;2023-12-20T11:26:16;17.50;;;5.90;;
37905;SDS011;23739;51.448;6.674;2023-12-20T11:28:48;14.77;;;4.30;;
37905;SDS011;23739;51.448;6.674;2023-12-20T11:31:14;12.20;;;3.78;;
37905;SDS011;23739;51.448;6.674;2023-12-20T11:33:42;14.00;;;5.20;;
37905;SDS011;23739;51.448;6.674;2023-12-20T11:36:14;17.10;;;5.38;;
37905;SDS011;23739;51.448;6.674;2023-12-20T11:41:36;17.15;;;5.07;;
37905;SDS011;23739;51.448;6.674;2023-12-20T11:44:03;15.18;;;5.68;;
37905;SDS011;23739;51.448;6.674;2023-12-20T11:46:31;10.25;;;4.40;;
37905;SDS011;23739;51.448;6.674;2023-12-20T11:48:58;15.30;;;5.22;;
37905;SDS011;23739;51.448;6.674;2023-12-20T11:51:26;14.35;;;4.45;;
37905;SDS011;23739;51.448;6.674;2023-12-20T11:53:55;13.25;;;4.30;;
37905;SDS011;23739;51.448;6.674;2023-12-20T11:56:21;14.57;;;5.18;;
37905;SDS011;23739;51.448;6.674;2023-12-20T11:58:48;12.80;;;5.15;;
37905;SDS011;23739;51.448;6.674;2023-12-20T12:01:14;17.20;;;4.85;;
37905;SDS011;23739;51.448;6.674;2023-12-20T12:03:40;16.88;;;4.95;;
37905;SDS011;23739;51.448;6.674;2023-12-20T12:06:08;14.48;;;5.15;;
37905;SDS011;23739;51.448;6.674;2023-12-20T12:08:35;24.98;;;6.30;;
37905;SDS011;23739;51.448;6.674;2023-12-20T12:11:02;15.77;;;4.43;;
37905;SDS011;23739;51.448;6.674;2023-12-20T12:13:28;18.83;;;5.20;;
37905;SDS011;23739;51.448;6.674;2023-12-20T12:15:55;16.10;;;4.93;;
37905;SDS011;23739;51.448;6.674;2023-12-20T12:18:21;17.95;;;5.22;;
37905;SDS011;23739;51.448;6.674;2023-12-20T12:20:47;11.18;;;3.92;;
37905;SDS011;23739;51.448;6.674;2023-12-20T12:23:13;18.70;;;5.05;;
37905;SDS011;23739;51.448;6.674;2023-12-20T12:25:40;19.67;;;5.28;;
37905;SDS011;23739;51.448;6.674;2023-12-20T12:28:11;17.02;;;6.38;;
37905;SDS011;23739;51.448;6.674;2023-12-20T12:30:37;17.35;;;4.28;;
37905;SDS011;23739;51.448;6.674;2023-12-20T12:33:03;22.98;;;4.55;;
37905;SDS011;23739;51.448;6.674;2023-12-20T12:35:29;17.52;;;4.43;;
37905;SDS011;23739;51.448;6.674;2023-12-20T12:37:56;12.27;;;4.60;;
37905;SDS011;23739;51.448;6.674;2023-12-20T12:40:25;10.55;;;4.68;;
37905;SDS011;23739;51.448;6.674;2023-12-20T12:42:51;15.80;;;4.30;;
37905;SDS011;23739;51.448;6.674;2023-12-20T12:45:17;11.68;;;4.63;;
37905;SDS011;23739;51.448;6.674;2023-12-20T12:47:44;13.48;;;4.40;;
37905;SDS011;23739;51.448;6.674;2023-12-20T12:50:11;14.32;;;4.18;;
37905;SDS011;23739;51.448;6.674;2023-12-20T12:52:37;14.27;;;5.15;;
37905;SDS011;23739;51.448;6.674;2023-12-20T12:55:03;15.57;;;5.45;;
37905;SDS011;23739;51.448;6.674;2023-12-20T12:57:29;15.70;;;4.70;;
37905;SDS011;23739;51.448;6.674;2023-12-20T12:59:55;18.60;;;4.72;;
37905;SDS011;23739;51.448;6.674;2023-12-20T13:02:23;18.48;;;5.55;;
37905;SDS011;23739;51.448;6.674;2023-12-20T13:04:49;13.77;;;4.38;;
37905;SDS011;23739;51.448;6.674;2023-12-20T13:07:16;19.17;;;6.20;;
37905;SDS011;23739;51.448;6.674;2023-12-20T13:09:42;16.10;;;5.05;;
37905;SDS011;23739;51.448;6.674;2023-12-20T13:12:08;21.30;;;7.70;;
37905;SDS011;23739;51.448;6.674;2023-12-20T13:14:34;18.20;;;6.18;;
37905;SDS011;23739;51.448;6.674;2023-12-20T13:17:02;18.75;;;7.28;;
37905;SDS011;23739;51.448;6.674;2023-12-20T13:19:29;14.95;;;5.25;;
37905;SDS011;23739;51.448;6.674;2023-12-20T13:21:55;22.42;;;6.65;;
37905;SDS011;23739;51.448;6.674;2023-12-20T13:24:23;14.82;;;6.03;;
37905;SDS011;23739;51.448;6.674;2023-12-20T13:26:49;20.60;;;7.32;;
37905;SDS011;23739;51.448;6.674;2023-12-20T13:29:15;17.67;;;8.20;;
37905;SDS011;23739;51.448;6.674;2023-12-20T13:31:42;15.65;;;6.07;;
37905;SDS011;23739;51.448;6.674;2023-12-20T13:34:08;15.90;;;5.78;;
37905;SDS011;23739;51.448;6.674;2023-12-20T13:36:34;19.02;;;6.47;;
37905;SDS011;23739;51.448;6.674;2023-12-20T13:39:01;19.05;;;6.75;;
37905;SDS011;23739;51.448;6.674;2023-12-20T13:41:29;15.18;;;6.53;;
37905;SDS011;23739;51.448;6.674;2023-12-20T13:43:55;19.83;;;7.28;;
37905;SDS011;23739;51.448;6.674;2023-12-20T13:46:21;19.17;;;7.75;;
37905;SDS011;23739;51.448;6.674;2023-12-20T13:48:49;23.80;;;6.68;;
37905;SDS011;23739;51.448;6.674;2023-12-20T13:51:15;21.17;;;8.48;;
37905;SDS011;23739;51.448;6.674;2023-12-20T13:53:41;16.48;;;7.30;;
37905;SDS011;23739;51.448;6.674;2023-12-20T13:56:13;22.85;;;6.90;;
37905;SDS011;23739;51.448;6.674;2023-12-20T13:58:48;14.25;;;7.05;;
37905;SDS011;23739;51.448;6.674;2023-12-20T14:01:15;22.77;;;7.50;;
37905;SDS011;23739;51.448;6.674;2023-12-20T14:03:42;21.48;;;9.38;;
37905;SDS011;23739;51.448;6.674;2023-12-20T14:06:08;12.85;;;7.18;;
37905;SDS011;23739;51.448;6.674;2023-12-20T14:08:34;13.00;;;6.85;;
37905;SDS011;23739;51.448;6.674;2023-12-20T14:11:01;20.40;;;7.10;;
37905;SDS011;23739;51.448;6.674;2023-12-20T14:13:27;21.92;;;8.90;;
37905;SDS011;23739;51.448;6.674;2023-12-20T14:15:53;15.02;;;7.63;;
37905;SDS011;23739;51.448;6.674;2023-12-20T14:18:19;22.88;;;9.30;;
37905;SDS011;23739;51.448;6.674;2023-12-20T14:20:45;25.27;;;8.27;;
37905;SDS011;23739;51.448;6.674;2023-12-20T14:23:12;20.63;;;9.10;;
37905;SDS011;23739;51.448;6.674;2023-12-20T14:25:40;17.92;;;7.97;;
37905;SDS011;23739;51.448;6.674;2023-12-20T14:28:06;25.17;;;9.55;;
37905;SDS011;23739;51.448;6.674;2023-12-20T14:30:33;20.92;;;9.20;;
37905;SDS011;23739;51.448;6.674;2023-12-20T14:33:00;20.13;;;8.10;;
37905;SDS011;23739;51.448;6.674;2023-12-20T14:35:26;24.63;;;8.05;;
37905;SDS011;23739;51.448;6.674;2023-12-20T14:37:52;15.25;;;7.22;;